Аэропорт: Гродно. Гродно

ICAO: UMMG

METAR:
2020-08-13 12:00:00
UMMG 131200Z VRB01MPS 9999 BKN033 23/08 Q1017 R17/CLRD// NOSIG
METAR:
2020-08-13 11:04:00
TAF UMMG 131104Z 1312/1321 12003MPS 9999 SCT025 TEMPO 1315/1321 VRB02MPS